sensor_id;sensor_type;location;lat;lon;timestamp;P1;durP1;ratioP1;P2;durP2;ratioP2
2035;SDS011;23642;42.658;23.350;2023-04-25T06:42:22;91.10;;;85.00;;
2035;SDS011;23642;42.658;23.350;2023-04-25T06:45:03;97.57;;;90.40;;
2035;SDS011;23642;42.658;23.350;2023-04-25T06:47:37;88.37;;;81.87;;
2035;SDS011;23642;42.658;23.350;2023-04-25T06:50:39;87.97;;;81.80;;
2035;SDS011;23642;42.658;23.350;2023-04-25T06:53:11;91.33;;;84.70;;
2035;SDS011;23642;42.658;23.350;2023-04-25T06:55:57;96.50;;;89.30;;
2035;SDS011;23642;42.658;23.350;2023-04-25T08:58:12;112.87;;;105.57;;
2035;SDS011;23642;42.658;23.350;2023-04-25T09:01:45;102.43;;;95.30;;
2035;SDS011;23642;42.658;23.350;2023-04-25T09:04:17;101.57;;;94.97;;
2035;SDS011;23642;42.658;23.350;2023-04-25T09:31:04;101.40;;;94.70;;
2035;SDS011;23642;42.658;23.350;2023-04-25T09:43:18;110.13;;;102.93;;
2035;SDS011;23642;42.658;23.350;2023-04-25T09:46:23;108.70;;;101.80;;
2035;SDS011;23642;42.658;23.350;2023-04-25T09:55:56;116.53;;;108.93;;
2035;SDS011;23642;42.658;23.350;2023-04-25T09:58:31;115.83;;;108.50;;
2035;SDS011;23642;42.658;23.350;2023-04-25T10:10:55;112.47;;;104.73;;
2035;SDS011;23642;42.658;23.350;2023-04-25T10:13:28;116.40;;;107.60;;
2035;SDS011;23642;42.658;23.350;2023-04-25T10:16:19;113.80;;;105.50;;
2035;SDS011;23642;42.658;23.350;2023-04-25T10:22:35;109.50;;;102.33;;
2035;SDS011;23642;42.658;23.350;2023-04-25T10:25:26;115.57;;;108.37;;
2035;SDS011;23642;42.658;23.350;2023-04-25T10:27:58;114.73;;;107.53;;
2035;SDS011;23642;42.658;23.350;2023-04-25T10:30:58;113.30;;;106.20;;
2035;SDS011;23642;42.658;23.350;2023-04-25T10:33:31;109.17;;;102.33;;
2035;SDS011;23642;42.658;23.350;2023-04-25T10:36:22;107.77;;;101.17;;
2035;SDS011;23642;42.658;23.350;2023-04-25T10:38:54;107.83;;;101.13;;
2035;SDS011;23642;42.658;23.350;2023-04-25T10:41:34;106.17;;;99.57;;
2035;SDS011;23642;42.658;23.350;2023-04-25T10:48:45;105.10;;;97.70;;
2035;SDS011;23642;42.658;23.350;2023-04-25T10:54:44;104.87;;;97.93;;
2035;SDS011;23642;42.658;23.350;2023-04-25T10:55:22;104.27;;;96.47;;
2035;SDS011;23642;42.658;23.350;2023-04-25T10:58:35;104.07;;;97.63;;
2035;SDS011;23642;42.658;23.350;2023-04-25T11:01:24;104.47;;;98.07;;
2035;SDS011;23642;42.658;23.350;2023-04-25T11:14:01;102.63;;;95.63;;
2035;SDS011;23642;42.658;23.350;2023-04-25T11:20:18;101.57;;;95.20;;
2035;SDS011;23642;42.658;23.350;2023-04-25T11:23:12;103.43;;;97.03;;
2035;SDS011;23642;42.658;23.350;2023-04-25T11:30:04;102.07;;;95.77;;
2035;SDS011;23642;42.658;23.350;2023-04-25T11:36:45;98.70;;;92.50;;
2035;SDS011;23642;42.658;23.350;2023-04-25T11:39:32;105.73;;;98.00;;
2035;SDS011;23642;42.658;23.350;2023-04-25T11:42:25;102.57;;;95.97;;
2035;SDS011;23642;42.658;23.350;2023-04-25T12:02:50;103.77;;;97.03;;
2035;SDS011;23642;42.658;23.350;2023-04-25T12:06:11;104.80;;;98.20;;
2035;SDS011;23642;42.658;23.350;2023-04-25T12:32:19;97.73;;;91.40;;
2035;SDS011;23642;42.658;23.350;2023-04-25T12:38:23;99.70;;;93.40;;
2035;SDS011;23642;42.658;23.350;2023-04-25T12:41:53;103.50;;;97.00;;
2035;SDS011;23642;42.658;23.350;2023-04-25T12:45:03;97.00;;;90.87;;
2035;SDS011;23642;42.658;23.350;2023-04-25T12:48:49;99.60;;;93.10;;
2035;SDS011;23642;42.658;23.350;2023-04-25T12:51:23;101.67;;;95.00;;
2035;SDS011;23642;42.658;23.350;2023-04-25T12:54:37;95.17;;;89.00;;
2035;SDS011;23642;42.658;23.350;2023-04-25T13:17:52;80.57;;;75.17;;
2035;SDS011;23642;42.658;23.350;2023-04-25T13:21:04;78.20;;;73.20;;
2035;SDS011;23642;42.658;23.350;2023-04-25T13:24:00;77.50;;;72.30;;
2035;SDS011;23642;42.658;23.350;2023-04-25T13:27:03;74.20;;;69.30;;
2035;SDS011;23642;42.658;23.350;2023-04-25T13:29:54;71.63;;;66.97;;
2035;SDS011;23642;42.658;23.350;2023-04-25T13:52:00;58.87;;;55.27;;
2035;SDS011;23642;42.658;23.350;2023-04-25T14:01:11;60.23;;;56.53;;
2035;SDS011;23642;42.658;23.350;2023-04-25T14:10:07;67.80;;;63.53;;
2035;SDS011;23642;42.658;23.350;2023-04-25T14:23:05;93.17;;;87.17;;
2035;SDS011;23642;42.658;23.350;2023-04-25T15:06:31;89.00;;;83.10;;
2035;SDS011;23642;42.658;23.350;2023-04-25T15:29:28;86.80;;;80.90;;
2035;SDS011;23642;42.658;23.350;2023-04-25T15:49:34;85.13;;;79.50;;
2035;SDS011;23642;42.658;23.350;2023-04-25T15:52:58;85.97;;;80.07;;
2035;SDS011;23642;42.658;23.350;2023-04-25T15:56:14;86.57;;;80.57;;
2035;SDS011;23642;42.658;23.350;2023-04-25T15:59:25;86.60;;;80.90;;
2035;SDS011;23642;42.658;23.350;2023-04-25T16:01:55;87.83;;;81.83;;
2035;SDS011;23642;42.658;23.350;2023-04-25T16:04:24;83.50;;;77.97;;
2035;SDS011;23642;42.658;23.350;2023-04-25T16:07:00;88.93;;;82.93;;
2035;SDS011;23642;42.658;23.350;2023-04-25T16:09:38;87.20;;;81.40;;
2035;SDS011;23642;42.658;23.350;2023-04-25T16:12:07;88.40;;;81.77;;
2035;SDS011;23642;42.658;23.350;2023-04-25T16:14:35;88.27;;;82.07;;
2035;SDS011;23642;42.658;23.350;2023-04-25T16:17:02;84.43;;;78.73;;
2035;SDS011;23642;42.658;23.350;2023-04-25T16:19:29;86.17;;;80.23;;
2035;SDS011;23642;42.658;23.350;2023-04-25T16:22:04;83.57;;;77.87;;
2035;SDS011;23642;42.658;23.350;2023-04-25T16:24:35;83.20;;;77.50;;
2035;SDS011;23642;42.658;23.350;2023-04-25T16:27:04;82.63;;;77.13;;
2035;SDS011;23642;42.658;23.350;2023-04-25T16:29:33;84.23;;;78.53;;
2035;SDS011;23642;42.658;23.350;2023-04-25T16:32:02;86.57;;;80.57;;
2035;SDS011;23642;42.658;23.350;2023-04-25T16:34:31;88.23;;;82.20;;
2035;SDS011;23642;42.658;23.350;2023-04-25T16:37:00;89.27;;;83.10;;
2035;SDS011;23642;42.658;23.350;2023-04-25T16:39:28;88.57;;;82.57;;
2035;SDS011;23642;42.658;23.350;2023-04-25T16:42:01;90.70;;;84.60;;
2035;SDS011;23642;42.658;23.350;2023-04-25T16:44:28;87.43;;;81.37;;
2035;SDS011;23642;42.658;23.350;2023-04-25T16:46:55;86.10;;;80.20;;
2035;SDS011;23642;42.658;23.350;2023-04-25T16:49:24;81.13;;;75.73;;
2035;SDS011;23642;42.658;23.350;2023-04-25T16:51:54;83.47;;;77.13;;
2035;SDS011;23642;42.658;23.350;2023-04-25T16:54:22;78.97;;;73.63;;
2035;SDS011;23642;42.658;23.350;2023-04-25T16:56:49;76.20;;;71.00;;
2035;SDS011;23642;42.658;23.350;2023-04-25T16:59:19;77.23;;;71.93;;
2035;SDS011;23642;42.658;23.350;2023-04-25T17:01:46;74.50;;;69.37;;
2035;SDS011;23642;42.658;23.350;2023-04-25T17:04:14;71.67;;;66.77;;
2035;SDS011;23642;42.658;23.350;2023-04-25T17:06:41;74.40;;;69.50;;
2035;SDS011;23642;42.658;23.350;2023-04-25T17:09:08;71.50;;;66.90;;
2035;SDS011;23642;42.658;23.350;2023-04-25T17:11:37;70.83;;;66.33;;
2035;SDS011;23642;42.658;23.350;2023-04-25T17:14:07;68.17;;;63.80;;
2035;SDS011;23642;42.658;23.350;2023-04-25T17:16:37;69.23;;;64.83;;
2035;SDS011;23642;42.658;23.350;2023-04-25T17:19:04;63.63;;;59.53;;
2035;SDS011;23642;42.658;23.350;2023-04-25T17:21:31;63.77;;;59.70;;
2035;SDS011;23642;42.658;23.350;2023-04-25T17:23:58;65.20;;;61.10;;
2035;SDS011;23642;42.658;23.350;2023-04-25T17:26:25;62.37;;;58.57;;
2035;SDS011;23642;42.658;23.350;2023-04-25T17:28:53;62.33;;;58.40;;
2035;SDS011;23642;42.658;23.350;2023-04-25T17:31:20;66.63;;;62.30;;
2035;SDS011;23642;42.658;23.350;2023-04-25T17:33:48;66.30;;;62.10;;
2035;SDS011;23642;42.658;23.350;2023-04-25T17:36:15;65.00;;;60.70;;
2035;SDS011;23642;42.658;23.350;2023-04-25T17:38:42;64.70;;;60.50;;
2035;SDS011;23642;42.658;23.350;2023-04-25T17:41:08;65.47;;;61.27;;
2035;SDS011;23642;42.658;23.350;2023-04-25T17:43:37;64.43;;;60.33;;
2035;SDS011;23642;42.658;23.350;2023-04-25T17:46:05;62.57;;;58.63;;
2035;SDS011;23642;42.658;23.350;2023-04-25T17:48:32;63.00;;;58.90;;
2035;SDS011;23642;42.658;23.350;2023-04-25T17:51:00;60.33;;;56.53;;
2035;SDS011;23642;42.658;23.350;2023-04-25T17:53:27;61.17;;;57.37;;
2035;SDS011;23642;42.658;23.350;2023-04-25T17:55:54;63.73;;;59.53;;
2035;SDS011;23642;42.658;23.350;2023-04-25T17:58:21;63.87;;;59.67;;
2035;SDS011;23642;42.658;23.350;2023-04-25T18:00:48;66.10;;;61.80;;
2035;SDS011;23642;42.658;23.350;2023-04-25T18:03:16;64.03;;;59.83;;
2035;SDS011;23642;42.658;23.350;2023-04-25T18:05:45;64.17;;;59.77;;
2035;SDS011;23642;42.658;23.350;2023-04-25T18:08:14;63.50;;;59.30;;
2035;SDS011;23642;42.658;23.350;2023-04-25T18:10:46;64.50;;;60.23;;
2035;SDS011;23642;42.658;23.350;2023-04-25T18:13:13;62.10;;;58.10;;
2035;SDS011;23642;42.658;23.350;2023-04-25T18:15:41;65.23;;;61.00;;
2035;SDS011;23642;42.658;23.350;2023-04-25T18:18:08;67.10;;;62.60;;
2035;SDS011;23642;42.658;23.350;2023-04-25T18:20:45;66.73;;;62.33;;
2035;SDS011;23642;42.658;23.350;2023-04-25T18:23:12;67.00;;;62.50;;
2035;SDS011;23642;42.658;23.350;2023-04-25T18:25:39;67.67;;;63.07;;
2035;SDS011;23642;42.658;23.350;2023-04-25T18:28:06;68.47;;;63.97;;
2035;SDS011;23642;42.658;23.350;2023-04-25T18:30:33;67.10;;;62.63;;
2035;SDS011;23642;42.658;23.350;2023-04-25T18:33:03;67.80;;;63.30;;
2035;SDS011;23642;42.658;23.350;2023-04-25T18:35:29;68.23;;;63.73;;
2035;SDS011;23642;42.658;23.350;2023-04-25T18:37:58;67.63;;;63.13;;
2035;SDS011;23642;42.658;23.350;2023-04-25T18:40:25;69.73;;;65.03;;
2035;SDS011;23642;42.658;23.350;2023-04-25T18:42:52;70.00;;;65.30;;
2035;SDS011;23642;42.658;23.350;2023-04-25T18:45:18;71.70;;;66.90;;
2035;SDS011;23642;42.658;23.350;2023-04-25T18:47:45;70.30;;;65.60;;
2035;SDS011;23642;42.658;23.350;2023-04-25T18:50:12;71.70;;;66.90;;
2035;SDS011;23642;42.658;23.350;2023-04-25T18:52:39;69.90;;;65.20;;
2035;SDS011;23642;42.658;23.350;2023-04-25T18:55:09;70.57;;;65.87;;
2035;SDS011;23642;42.658;23.350;2023-04-25T18:57:36;72.30;;;67.50;;
2035;SDS011;23642;42.658;23.350;2023-04-25T19:00:03;71.27;;;66.37;;
2035;SDS011;23642;42.658;23.350;2023-04-25T19:02:31;73.17;;;68.23;;
2035;SDS011;23642;42.658;23.350;2023-04-25T19:04:58;70.30;;;65.57;;
2035;SDS011;23642;42.658;23.350;2023-04-25T19:07:25;70.87;;;66.17;;
2035;SDS011;23642;42.658;23.350;2023-04-25T19:09:54;69.63;;;64.93;;
2035;SDS011;23642;42.658;23.350;2023-04-25T19:12:22;70.50;;;65.80;;
2035;SDS011;23642;42.658;23.350;2023-04-25T19:14:49;70.27;;;65.57;;
2035;SDS011;23642;42.658;23.350;2023-04-25T19:17:16;70.17;;;65.37;;
2035;SDS011;23642;42.658;23.350;2023-04-25T19:19:43;69.87;;;65.10;;
2035;SDS011;23642;42.658;23.350;2023-04-25T19:22:12;70.27;;;65.67;;
2035;SDS011;23642;42.658;23.350;2023-04-25T19:24:40;70.17;;;65.27;;
2035;SDS011;23642;42.658;23.350;2023-04-25T19:27:07;71.60;;;66.80;;
2035;SDS011;23642;42.658;23.350;2023-04-25T19:29:35;70.47;;;65.67;;
2035;SDS011;23642;42.658;23.350;2023-04-25T19:32:08;70.27;;;65.47;;
2035;SDS011;23642;42.658;23.350;2023-04-25T19:34:35;70.30;;;65.50;;
2035;SDS011;23642;42.658;23.350;2023-04-25T19:37:02;72.17;;;67.37;;
2035;SDS011;23642;42.658;23.350;2023-04-25T19:39:29;72.60;;;67.80;;
2035;SDS011;23642;42.658;23.350;2023-04-25T19:41:56;72.43;;;67.63;;
2035;SDS011;23642;42.658;23.350;2023-04-25T19:44:23;73.17;;;68.27;;
2035;SDS011;23642;42.658;23.350;2023-04-25T19:46:51;73.20;;;68.40;;
2035;SDS011;23642;42.658;23.350;2023-04-25T19:49:18;75.13;;;70.13;;
2035;SDS011;23642;42.658;23.350;2023-04-25T19:51:46;74.63;;;69.63;;
2035;SDS011;23642;42.658;23.350;2023-04-25T19:54:13;74.90;;;69.90;;
2035;SDS011;23642;42.658;23.350;2023-04-25T19:56:39;75.33;;;70.33;;
2035;SDS011;23642;42.658;23.350;2023-04-25T19:59:06;74.17;;;69.17;;
2035;SDS011;23642;42.658;23.350;2023-04-25T20:01:33;75.07;;;70.10;;
2035;SDS011;23642;42.658;23.350;2023-04-25T20:04:01;75.33;;;70.33;;
2035;SDS011;23642;42.658;23.350;2023-04-25T20:06:28;74.40;;;69.10;;
2035;SDS011;23642;42.658;23.350;2023-04-25T20:08:56;73.10;;;68.20;;
2035;SDS011;23642;42.658;23.350;2023-04-25T20:11:23;74.00;;;69.10;;
2035;SDS011;23642;42.658;23.350;2023-04-25T20:13:52;74.33;;;69.43;;
2035;SDS011;23642;42.658;23.350;2023-04-25T20:16:25;74.60;;;69.60;;
2035;SDS011;23642;42.658;23.350;2023-04-25T20:18:52;75.10;;;70.10;;
2035;SDS011;23642;42.658;23.350;2023-04-25T20:21:24;78.70;;;73.40;;
2035;SDS011;23642;42.658;23.350;2023-04-25T20:23:51;76.87;;;71.77;;
2035;SDS011;23642;42.658;23.350;2023-04-25T20:26:18;77.67;;;72.30;;
2035;SDS011;23642;42.658;23.350;2023-04-25T20:28:45;76.57;;;71.47;;
2035;SDS011;23642;42.658;23.350;2023-04-25T20:31:12;78.10;;;72.90;;
2035;SDS011;23642;42.658;23.350;2023-04-25T20:33:39;78.10;;;72.83;;
2035;SDS011;23642;42.658;23.350;2023-04-25T20:36:07;76.27;;;71.07;;
2035;SDS011;23642;42.658;23.350;2023-04-25T20:38:36;75.63;;;70.63;;
2035;SDS011;23642;42.658;23.350;2023-04-25T20:41:02;75.00;;;69.70;;
2035;SDS011;23642;42.658;23.350;2023-04-25T20:43:31;72.43;;;67.63;;
2035;SDS011;23642;42.658;23.350;2023-04-25T20:45:58;73.60;;;68.70;;
2035;SDS011;23642;42.658;23.350;2023-04-25T20:48:25;71.90;;;66.90;;
2035;SDS011;23642;42.658;23.350;2023-04-25T20:50:52;74.73;;;69.70;;
2035;SDS011;23642;42.658;23.350;2023-04-25T20:53:19;75.13;;;69.73;;
2035;SDS011;23642;42.658;23.350;2023-04-25T20:55:47;72.17;;;67.37;;
2035;SDS011;23642;42.658;23.350;2023-04-25T20:58:13;74.50;;;69.40;;
2035;SDS011;23642;42.658;23.350;2023-04-25T21:00:40;73.43;;;68.53;;
2035;SDS011;23642;42.658;23.350;2023-04-25T21:03:08;73.00;;;68.10;;
2035;SDS011;23642;42.658;23.350;2023-04-25T21:05:35;72.17;;;67.33;;
2035;SDS011;23642;42.658;23.350;2023-04-25T21:08:02;73.90;;;68.80;;
2035;SDS011;23642;42.658;23.350;2023-04-25T21:10:29;74.10;;;69.03;;
2035;SDS011;23642;42.658;23.350;2023-04-25T21:12:58;72.40;;;67.63;;
2035;SDS011;23642;42.658;23.350;2023-04-25T21:15:25;72.67;;;67.87;;
2035;SDS011;23642;42.658;23.350;2023-04-25T21:17:54;72.53;;;67.27;;
2035;SDS011;23642;42.658;23.350;2023-04-25T21:20:21;73.20;;;68.00;;
2035;SDS011;23642;42.658;23.350;2023-04-25T21:22:48;75.87;;;70.87;;
2035;SDS011;23642;42.658;23.350;2023-04-25T21:25:16;76.00;;;71.03;;
2035;SDS011;23642;42.658;23.350;2023-04-25T21:27:50;79.10;;;73.90;;
2035;SDS011;23642;42.658;23.350;2023-04-25T21:30:20;78.53;;;73.40;;
2035;SDS011;23642;42.658;23.350;2023-04-25T21:32:48;76.17;;;71.17;;
2035;SDS011;23642;42.658;23.350;2023-04-25T21:35:15;80.23;;;75.07;;
2035;SDS011;23642;42.658;23.350;2023-04-25T21:37:43;80.53;;;75.43;;
2035;SDS011;23642;42.658;23.350;2023-04-25T21:40:10;79.97;;;74.67;;
2035;SDS011;23642;42.658;23.350;2023-04-25T21:42:38;76.87;;;71.73;;
2035;SDS011;23642;42.658;23.350;2023-04-25T21:45:05;74.90;;;70.10;;
2035;SDS011;23642;42.658;23.350;2023-04-25T21:47:37;72.67;;;67.97;;
2035;SDS011;23642;42.658;23.350;2023-04-25T21:50:04;68.67;;;64.17;;
2035;SDS011;23642;42.658;23.350;2023-04-25T21:52:32;71.40;;;66.60;;
2035;SDS011;23642;42.658;23.350;2023-04-25T21:54:59;69.83;;;65.23;;
2035;SDS011;23642;42.658;23.350;2023-04-25T21:57:25;68.40;;;63.90;;
2035;SDS011;23642;42.658;23.350;2023-04-25T21:59:55;68.30;;;63.80;;
2035;SDS011;23642;42.658;23.350;2023-04-25T22:02:23;68.43;;;63.97;;
2035;SDS011;23642;42.658;23.350;2023-04-25T22:04:53;69.00;;;64.50;;
2035;SDS011;23642;42.658;23.350;2023-04-25T22:07:20;68.67;;;64.17;;
2035;SDS011;23642;42.658;23.350;2023-04-25T22:09:48;68.53;;;64.00;;
2035;SDS011;23642;42.658;23.350;2023-04-25T22:12:14;70.00;;;65.40;;
2035;SDS011;23642;42.658;23.350;2023-04-25T22:14:41;66.03;;;61.63;;
2035;SDS011;23642;42.658;23.350;2023-04-25T22:17:08;66.30;;;61.90;;
2035;SDS011;23642;42.658;23.350;2023-04-25T22:19:36;67.83;;;63.43;;
2035;SDS011;23642;42.658;23.350;2023-04-25T22:22:04;67.20;;;62.80;;
2035;SDS011;23642;42.658;23.350;2023-04-25T22:24:31;65.40;;;61.17;;
2035;SDS011;23642;42.658;23.350;2023-04-25T22:26:58;67.17;;;62.67;;
2035;SDS011;23642;42.658;23.350;2023-04-25T22:29:25;66.60;;;62.20;;
2035;SDS011;23642;42.658;23.350;2023-04-25T22:31:52;65.10;;;60.90;;
2035;SDS011;23642;42.658;23.350;2023-04-25T22:34:19;68.00;;;63.50;;
2035;SDS011;23642;42.658;23.350;2023-04-25T22:36:45;66.43;;;61.70;;
2035;SDS011;23642;42.658;23.350;2023-04-25T22:39:14;64.47;;;60.33;;
2035;SDS011;23642;42.658;23.350;2023-04-25T22:41:43;65.00;;;60.80;;
2035;SDS011;23642;42.658;23.350;2023-04-25T22:44:10;65.20;;;61.03;;
2035;SDS011;23642;42.658;23.350;2023-04-25T22:46:37;62.93;;;58.93;;
2035;SDS011;23642;42.658;23.350;2023-04-25T22:49:04;64.53;;;60.37;;
2035;SDS011;23642;42.658;23.350;2023-04-25T22:51:33;65.10;;;60.80;;
2035;SDS011;23642;42.658;23.350;2023-04-25T22:54:01;64.73;;;60.40;;
2035;SDS011;23642;42.658;23.350;2023-04-25T22:56:29;63.80;;;59.70;;
2035;SDS011;23642;42.658;23.350;2023-04-25T22:58:56;63.97;;;59.87;;
2035;SDS011;23642;42.658;23.350;2023-04-25T23:01:23;65.23;;;60.93;;
2035;SDS011;23642;42.658;23.350;2023-04-25T23:03:51;64.30;;;60.20;;
2035;SDS011;23642;42.658;23.350;2023-04-25T23:06:18;64.80;;;60.60;;
2035;SDS011;23642;42.658;23.350;2023-04-25T23:08:46;65.93;;;61.60;;
2035;SDS011;23642;42.658;23.350;2023-04-25T23:11:12;64.60;;;60.43;;
2035;SDS011;23642;42.658;23.350;2023-04-25T23:13:41;63.90;;;59.70;;
2035;SDS011;23642;42.658;23.350;2023-04-25T23:16:08;63.10;;;59.00;;
2035;SDS011;23642;42.658;23.350;2023-04-25T23:18:35;60.37;;;56.37;;
2035;SDS011;23642;42.658;23.350;2023-04-25T23:21:03;59.87;;;56.07;;
2035;SDS011;23642;42.658;23.350;2023-04-25T23:23:31;60.87;;;56.97;;
2035;SDS011;23642;42.658;23.350;2023-04-25T23:25:59;60.10;;;56.20;;
2035;SDS011;23642;42.658;23.350;2023-04-25T23:28:25;61.20;;;57.30;;
2035;SDS011;23642;42.658;23.350;2023-04-25T23:30:54;61.03;;;57.03;;
2035;SDS011;23642;42.658;23.350;2023-04-25T23:33:28;59.90;;;55.90;;
2035;SDS011;23642;42.658;23.350;2023-04-25T23:35:55;62.23;;;58.13;;
2035;SDS011;23642;42.658;23.350;2023-04-25T23:38:22;62.10;;;57.90;;
2035;SDS011;23642;42.658;23.350;2023-04-25T23:40:49;61.93;;;57.63;;
2035;SDS011;23642;42.658;23.350;2023-04-25T23:43:16;60.87;;;56.87;;
2035;SDS011;23642;42.658;23.350;2023-04-25T23:45:43;59.27;;;55.37;;
2035;SDS011;23642;42.658;23.350;2023-04-25T23:48:12;57.87;;;54.23;;
2035;SDS011;23642;42.658;23.350;2023-04-25T23:50:40;59.00;;;55.20;;
2035;SDS011;23642;42.658;23.350;2023-04-25T23:53:07;57.87;;;54.07;;
2035;SDS011;23642;42.658;23.350;2023-04-25T23:55:34;58.27;;;54.37;;
2035;SDS011;23642;42.658;23.350;2023-04-25T23:58:01;59.73;;;55.33;;
